Virtual Norwegian is not affiliated with Norwegian Air Shuttle in any way.
If you are looking for the real "Norwegian", or you wish to book Norwegian flights, please visit Norwegian.com


We use cookies to ensure you get the best experience on our website.   ACCEPT

EGKK - LGW - London (Gatwick)

General Info Alternate Airport
ICAO: EGKK Elevation: 202 ft ICAO: EGSS
IATA: LGW Country: United Kingdom IATA: STN
City: London Charts: Log in to view charts City: London
Name: Gatwick Hub: Yes Name Stansted
General Info
ICAO: EGKK
IATA: LGW
City: London
Name: Gatwick
Elevation: 202 ft
Country: United Kingdom
Charts: Log in to view charts
Hub: Yes
 
Alternate Airport
ICAO: EGSS
IATA: STN
City: London
Name: Stansted

Weather
200350Z 25006KT 9999 BKN005 10/09 Q1019
Weather
200350Z 25006KT 9999 BKN005 10/09 Q1019

Runway Info
08L
Length ILS/LOC Heading
2565 m N/A 077
08R
Length ILS/LOC Course
3316 m 110.90 079
26L
Length ILS/LOC Course
3316 m 110.90 259
26R
Length ILS/LOC Heading
2565 m N/A 257

NOTAMs
NOTAMs currently unavailable.
NOTAMs
NOTAMs currently unavailable

Route map
Airport
Airport (hub)